This is the latest recevied weather packets stored in our database for station/object XQ6AK-15. If no packets are shown the sender has not sent any weather packets the latest 10 day(s).
| Time | Temp. | Humidity | Pressure | Rain* | Wind** | Luminosity | Snow |
|---|---|---|---|---|---|---|---|
| 1787496798 | 6.67° C | 99% | 1017.1 hPa | 0 mm | - | 400 W/m² | - |
| 1787496493 | 6.67° C | 99% | 1017.1 hPa | 0 mm | - | 382 W/m² | - |
| 1787496188 | 6.11° C | 99% | 1017.1 hPa | 0 mm | - | 377 W/m² | - |
| 1787495887 | 5.56° C | 99% | 1017.2 hPa | 0 mm | - | 355 W/m² | - |
| 1787495583 | 5.56° C | 99% | 1017.3 hPa | 0 mm | - | 362 W/m² | - |
| 1787495278 | 5° C | 99% | 1017.5 hPa | 0 mm | - | 320 W/m² | - |
| 1787494975 | 5° C | 99% | 1017.3 hPa | 0 mm | - | 336 W/m² | - |
| 1787494674 | 3.89° C | 99% | 1017.5 hPa | 0 mm | - | 387 W/m² | - |
| 1787494370 | 3.89° C | 99% | 1017.5 hPa | 0 mm | - | 167 W/m² | - |
| 1787494066 | 3.89° C | 99% | 1017.4 hPa | 0 mm | - | 308 W/m² | - |
| 1787493762 | 3.33° C | 99% | 1017.5 hPa | 0 mm | - | 211 W/m² | - |
| 1787493461 | 3.33° C | 99% | 1017.4 hPa | 0 mm | - | 179 W/m² | - |
| 1787493158 | 2.78° C | 99% | 1017.6 hPa | 0 mm | - | 157 W/m² | - |
| 1787492852 | 2.78° C | 99% | 1017.5 hPa | 0 mm | - | 167 W/m² | - |
| 1787492549 | 2.78° C | 99% | 1017.3 hPa | 0 mm | - | 121 W/m² | - |
| 1787492244 | 2.78° C | 99% | 1017.2 hPa | 0 mm | - | 132 W/m² | - |
| 1787491939 | 2.22° C | 99% | 1017.3 hPa | 0 mm | - | 120 W/m² | - |
| 1787491634 | 2.22° C | 99% | 1017.4 hPa | 0 mm | - | 120 W/m² | - |
| 1787491329 | 2.22° C | 99% | 1017.3 hPa | 0 mm | - | 100 W/m² | - |
| 1787491025 | 1.67° C | 99% | 1017.3 hPa | 0 mm | - | 107 W/m² | - |
| 1787490721 | 1.67° C | 99% | 1017.2 hPa | 1.27 mm | - | 91 W/m² | - |
| 1787490420 | 1.67° C | 99% | 1017.3 hPa | 0 mm | - | 84 W/m² | - |
| 1787490119 | 1.11° C | 99% | 1017.4 hPa | 0 mm | - | 99 W/m² | - |
| 1787489814 | 0.56° C | 99% | 1017.2 hPa | 0 mm | - | 80 W/m² | - |
| 1787489509 | 0.56° C | 99% | 1017.2 hPa | 0 mm | - | 89 W/m² | - |
* Rain latest hour (hover to see other rain measurements)
** Current wind speed in m/s (hover to see current wind gust speed)